Terminal Aerodrome Forecast
Issued by NWS

Home | Current Version | Previous Version | Text Only | Print | Product List | Glossary On
Versions: 1 2 3 4 5 6 7 8 9 10 11 12 13 14 15 16
000
FTUS46 KMFR 261121
TAFOTH
TAF
KOTH 261121Z 2612/2712 14005KT P6SM SCT025 BKN035 BKN050
      TEMPO 2613/2617 BKN025 OVC035
     FM262100 05005KT P6SM SCT035 SCT060 SCT200
     FM271000 14004KT P6SM BKN050=

USA.gov is the U.S. government's official web portal to all federal, state and local government web resources and services.